sensor_id;sensor_type;location;lat;lon;timestamp;pressure;altitude;pressure_sealevel;temperature;humidity
80654;BME280;70020;45.524;10.240;2023-08-01T00:01:37;71558.22;;;39.87;29.04
80654;BME280;70020;45.524;10.240;2023-08-01T00:04:04;71556.53;;;39.85;28.60
80654;BME280;70020;45.524;10.240;2023-08-01T00:06:30;71554.66;;;39.83;28.55
80654;BME280;70020;45.524;10.240;2023-08-01T00:08:56;71553.34;;;39.82;28.33
80654;BME280;70020;45.524;10.240;2023-08-01T00:11:22;71553.16;;;39.82;27.96
80654;BME280;70020;45.524;10.240;2023-08-01T00:13:48;71553.22;;;39.82;28.49
80654;BME280;70020;45.524;10.240;2023-08-01T00:16:15;71554.06;;;39.83;28.27
80654;BME280;70020;45.524;10.240;2023-08-01T00:18:40;71555.22;;;39.84;28.36
80654;BME280;70020;45.524;10.240;2023-08-01T00:21:06;71556.97;;;39.85;28.36
80654;BME280;70020;45.524;10.240;2023-08-01T00:23:38;71555.31;;;39.83;29.14
80654;BME280;70020;45.524;10.240;2023-08-01T00:26:03;71553.19;;;39.81;28.86
80654;BME280;70020;45.524;10.240;2023-08-01T00:28:30;71551.53;;;39.80;28.60
80654;BME280;70020;45.524;10.240;2023-08-01T00:31:06;71550.25;;;39.78;28.66
80654;BME280;70020;45.524;10.240;2023-08-01T00:33:34;71549.13;;;39.77;28.81
80654;BME280;70020;45.524;10.240;2023-08-01T00:35:59;71548.41;;;39.76;28.68
80654;BME280;70020;45.524;10.240;2023-08-01T00:38:25;71546.88;;;39.75;28.68
80654;BME280;70020;45.524;10.240;2023-08-01T00:40:51;71546.19;;;39.74;28.38
80654;BME280;70020;45.524;10.240;2023-08-01T00:43:17;71545.72;;;39.74;28.17
80654;BME280;70020;45.524;10.240;2023-08-01T00:45:42;71545.31;;;39.73;28.41
80654;BME280;70020;45.524;10.240;2023-08-01T00:48:08;71543.56;;;39.72;28.79
80654;BME280;70020;45.524;10.240;2023-08-01T00:50:34;71540.44;;;39.69;29.00
80654;BME280;70020;45.524;10.240;2023-08-01T00:53:01;71536.91;;;39.66;28.46
80654;BME280;70020;45.524;10.240;2023-08-01T00:55:29;71532.53;;;39.62;28.65
80654;BME280;70020;45.524;10.240;2023-08-01T00:57:55;71530.81;;;39.61;28.14
80654;BME280;70020;45.524;10.240;2023-08-01T01:00:20;71528.97;;;39.59;28.33
80654;BME280;70020;45.524;10.240;2023-08-01T01:02:46;71526.81;;;39.57;28.61
80654;BME280;70020;45.524;10.240;2023-08-01T01:05:12;71524.59;;;39.55;28.45
80654;BME280;70020;45.524;10.240;2023-08-01T01:07:39;71520.69;;;39.52;28.68
80654;BME280;70020;45.524;10.240;2023-08-01T01:10:05;71518.97;;;39.50;28.33
80654;BME280;70020;45.524;10.240;2023-08-01T01:12:32;71519.38;;;39.51;28.06
80654;BME280;70020;45.524;10.240;2023-08-01T01:14:58;71521.09;;;39.52;28.14
80654;BME280;70020;45.524;10.240;2023-08-01T01:17:24;71520.00;;;39.51;28.58
80654;BME280;70020;45.524;10.240;2023-08-01T01:19:50;71519.72;;;39.51;28.24
80654;BME280;70020;45.524;10.240;2023-08-01T01:22:16;71519.19;;;39.50;28.40
80654;BME280;70020;45.524;10.240;2023-08-01T01:24:42;71520.16;;;39.51;28.15
80654;BME280;70020;45.524;10.240;2023-08-01T01:27:08;71521.75;;;39.52;27.97
80654;BME280;70020;45.524;10.240;2023-08-01T01:29:35;71523.22;;;39.53;27.76
80654;BME280;70020;45.524;10.240;2023-08-01T01:32:03;71524.47;;;39.55;28.03
80654;BME280;70020;45.524;10.240;2023-08-01T01:34:31;71526.31;;;39.56;27.60
80654;BME280;70020;45.524;10.240;2023-08-01T01:36:57;71526.47;;;39.56;28.02
80654;BME280;70020;45.524;10.240;2023-08-01T01:39:22;71525.56;;;39.56;28.34
80654;BME280;70020;45.524;10.240;2023-08-01T01:41:48;71525.78;;;39.56;28.51
80654;BME280;70020;45.524;10.240;2023-08-01T01:44:14;71525.09;;;39.55;28.58
80654;BME280;70020;45.524;10.240;2023-08-01T01:46:40;71524.50;;;39.54;28.67
80654;BME280;70020;45.524;10.240;2023-08-01T01:49:05;71523.53;;;39.53;28.62
80654;BME280;70020;45.524;10.240;2023-08-01T01:51:31;71523.25;;;39.53;28.63
80654;BME280;70020;45.524;10.240;2023-08-01T01:53:57;71521.81;;;39.52;28.83
80654;BME280;70020;45.524;10.240;2023-08-01T01:56:23;71519.84;;;39.50;28.99
80654;BME280;70020;45.524;10.240;2023-08-01T01:58:48;71518.47;;;39.48;29.01
80654;BME280;70020;45.524;10.240;2023-08-01T02:01:14;71518.34;;;39.48;29.00
80654;BME280;70020;45.524;10.240;2023-08-01T02:03:40;71518.34;;;39.48;28.74
80654;BME280;70020;45.524;10.240;2023-08-01T02:06:06;71518.13;;;39.47;28.69
80654;BME280;70020;45.524;10.240;2023-08-01T02:08:32;71518.00;;;39.47;29.08
80654;BME280;70020;45.524;10.240;2023-08-01T02:10:58;71516.88;;;39.46;28.91
80654;BME280;70020;45.524;10.240;2023-08-01T02:13:25;71515.72;;;39.45;29.09
80654;BME280;70020;45.524;10.240;2023-08-01T02:15:51;71513.25;;;39.43;29.41
80654;BME280;70020;45.524;10.240;2023-08-01T02:18:17;71513.38;;;39.43;29.07
80654;BME280;70020;45.524;10.240;2023-08-01T02:20:43;71513.09;;;39.43;29.00
80654;BME280;70020;45.524;10.240;2023-08-01T02:23:08;71513.09;;;39.43;29.22
80654;BME280;70020;45.524;10.240;2023-08-01T02:25:40;71513.38;;;39.43;29.18
80654;BME280;70020;45.524;10.240;2023-08-01T02:28:07;71512.63;;;39.43;29.02
80654;BME280;70020;45.524;10.240;2023-08-01T02:30:34;71511.66;;;39.42;28.72
80654;BME280;70020;45.524;10.240;2023-08-01T02:33:00;71510.03;;;39.41;29.02
80654;BME280;70020;45.524;10.240;2023-08-01T02:35:26;71507.22;;;39.38;29.36
80654;BME280;70020;45.524;10.240;2023-08-01T02:37:54;71505.56;;;39.36;29.02
80654;BME280;70020;45.524;10.240;2023-08-01T02:40:20;71501.94;;;39.33;29.05
80654;BME280;70020;45.524;10.240;2023-08-01T02:42:46;71498.66;;;39.30;29.10
80654;BME280;70020;45.524;10.240;2023-08-01T02:45:12;71496.97;;;39.29;29.20
80654;BME280;70020;45.524;10.240;2023-08-01T02:47:38;71496.28;;;39.28;29.58
80654;BME280;70020;45.524;10.240;2023-08-01T02:50:05;71494.03;;;39.26;29.33
80654;BME280;70020;45.524;10.240;2023-08-01T02:52:31;71490.84;;;39.23;28.96
80654;BME280;70020;45.524;10.240;2023-08-01T02:54:57;71489.97;;;39.22;29.04
80654;BME280;70020;45.524;10.240;2023-08-01T02:57:23;71488.03;;;39.20;29.04
80654;BME280;70020;45.524;10.240;2023-08-01T02:59:49;71484.88;;;39.18;29.64
80654;BME280;70020;45.524;10.240;2023-08-01T03:02:15;71484.16;;;39.17;29.20
80654;BME280;70020;45.524;10.240;2023-08-01T03:04:40;71483.53;;;39.17;29.15
80654;BME280;70020;45.524;10.240;2023-08-01T03:07:06;71483.31;;;39.16;29.45
80654;BME280;70020;45.524;10.240;2023-08-01T03:09:32;71483.19;;;39.16;28.92
80654;BME280;70020;45.524;10.240;2023-08-01T03:11:58;71480.34;;;39.13;29.90
80654;BME280;70020;45.524;10.240;2023-08-01T03:14:24;71475.78;;;39.09;31.00
80654;BME280;70020;45.524;10.240;2023-08-01T03:16:50;71470.22;;;39.04;31.77
80654;BME280;70020;45.524;10.240;2023-08-01T03:19:16;71462.91;;;38.97;33.21
80654;BME280;70020;45.524;10.240;2023-08-01T03:21:42;71456.00;;;38.92;32.53
80654;BME280;70020;45.524;10.240;2023-08-01T03:24:11;71450.84;;;38.87;33.52
80654;BME280;70020;45.524;10.240;2023-08-01T03:26:37;71443.66;;;38.81;35.06
80654;BME280;70020;45.524;10.240;2023-08-01T03:29:03;71434.16;;;38.72;36.30
80654;BME280;70020;45.524;10.240;2023-08-01T03:31:30;71422.59;;;38.61;35.75
80654;BME280;70020;45.524;10.240;2023-08-01T03:33:56;71415.75;;;38.55;35.72
80654;BME280;70020;45.524;10.240;2023-08-01T03:36:24;71409.19;;;38.49;37.25
80654;BME280;70020;45.524;10.240;2023-08-01T03:38:50;71405.03;;;38.45;37.11
80654;BME280;70020;45.524;10.240;2023-08-01T03:41:16;71398.41;;;38.39;38.20
80654;BME280;70020;45.524;10.240;2023-08-01T03:43:42;71391.81;;;38.33;36.97
80654;BME280;70020;45.524;10.240;2023-08-01T03:46:09;71385.84;;;38.28;36.71
80654;BME280;70020;45.524;10.240;2023-08-01T03:48:35;71381.81;;;38.24;36.95
80654;BME280;70020;45.524;10.240;2023-08-01T03:51:00;71379.41;;;38.22;36.59
80654;BME280;70020;45.524;10.240;2023-08-01T03:53:28;71377.44;;;38.20;37.35
80654;BME280;70020;45.524;10.240;2023-08-01T03:55:54;71375.91;;;38.19;36.86
80654;BME280;70020;45.524;10.240;2023-08-01T03:58:20;71374.75;;;38.17;36.09
80654;BME280;70020;45.524;10.240;2023-08-01T04:00:46;71374.44;;;38.17;35.50
80654;BME280;70020;45.524;10.240;2023-08-01T04:03:12;71374.75;;;38.17;35.58
80654;BME280;70020;45.524;10.240;2023-08-01T04:05:38;71376.97;;;38.19;35.35
80654;BME280;70020;45.524;10.240;2023-08-01T04:08:03;71378.81;;;38.21;36.81
80654;BME280;70020;45.524;10.240;2023-08-01T04:10:29;71379.38;;;38.21;37.27
80654;BME280;70020;45.524;10.240;2023-08-01T04:12:55;71377.66;;;38.20;36.35
80654;BME280;70020;45.524;10.240;2023-08-01T04:15:21;71377.50;;;38.20;36.11
80654;BME280;70020;45.524;10.240;2023-08-01T04:17:47;71377.53;;;38.20;35.68
80654;BME280;70020;45.524;10.240;2023-08-01T04:20:13;71378.13;;;38.20;35.82
80654;BME280;70020;45.524;10.240;2023-08-01T04:22:38;71380.09;;;38.22;35.63
80654;BME280;70020;45.524;10.240;2023-08-01T04:25:07;71379.28;;;38.21;35.28
80654;BME280;70020;45.524;10.240;2023-08-01T04:27:33;71378.44;;;38.20;37.03
80654;BME280;70020;45.524;10.240;2023-08-01T04:30:00;71377.88;;;38.20;35.00
80654;BME280;70020;45.524;10.240;2023-08-01T04:32:25;71378.44;;;38.20;34.71
80654;BME280;70020;45.524;10.240;2023-08-01T04:34:52;71379.91;;;38.21;36.38
80654;BME280;70020;45.524;10.240;2023-08-01T04:37:17;71380.91;;;38.22;35.94
80654;BME280;70020;45.524;10.240;2023-08-01T04:39:45;71383.81;;;38.24;35.17
80654;BME280;70020;45.524;10.240;2023-08-01T04:42:11;71382.69;;;38.23;36.91
80654;BME280;70020;45.524;10.240;2023-08-01T04:44:37;71383.31;;;38.24;35.60
80654;BME280;70020;45.524;10.240;2023-08-01T04:47:04;71384.59;;;38.25;35.47
80654;BME280;70020;45.524;10.240;2023-08-01T04:49:30;71382.91;;;38.23;36.19
80654;BME280;70020;45.524;10.240;2023-08-01T04:51:56;71381.75;;;38.22;36.63
80654;BME280;70020;45.524;10.240;2023-08-01T04:54:21;71378.66;;;38.19;34.30
80654;BME280;70020;45.524;10.240;2023-08-01T04:56:47;71376.25;;;38.17;34.04
80654;BME280;70020;45.524;10.240;2023-08-01T04:59:13;71374.63;;;38.15;35.87
80654;BME280;70020;45.524;10.240;2023-08-01T05:01:39;71373.94;;;38.15;36.18
80654;BME280;70020;45.524;10.240;2023-08-01T05:04:05;71372.28;;;38.13;37.32
80654;BME280;70020;45.524;10.240;2023-08-01T05:06:31;71372.16;;;38.13;35.86
80654;BME280;70020;45.524;10.240;2023-08-01T05:08:58;71369.16;;;38.10;37.40
80654;BME280;70020;45.524;10.240;2023-08-01T05:11:24;71370.94;;;38.11;36.50
80654;BME280;70020;45.524;10.240;2023-08-01T05:13:50;71371.22;;;38.11;36.74
80654;BME280;70020;45.524;10.240;2023-08-01T05:16:16;71369.13;;;38.09;37.73
80654;BME280;70020;45.524;10.240;2023-08-01T05:18:42;71359.88;;;38.01;39.00
80654;BME280;70020;45.524;10.240;2023-08-01T05:21:08;71357.88;;;37.99;36.56
80654;BME280;70020;45.524;10.240;2023-08-01T05:23:34;71358.56;;;38.00;36.29
80654;BME280;70020;45.524;10.240;2023-08-01T05:26:00;71357.81;;;37.99;36.92
80654;BME280;70020;45.524;10.240;2023-08-01T05:28:26;71353.50;;;37.96;35.97
80654;BME280;70020;45.524;10.240;2023-08-01T05:30:52;71352.53;;;37.95;34.76
80654;BME280;70020;45.524;10.240;2023-08-01T05:33:18;71351.22;;;37.94;36.78
80654;BME280;70020;45.524;10.240;2023-08-01T05:35:43;71350.25;;;37.93;36.30
80654;BME280;70020;45.524;10.240;2023-08-01T05:38:10;71352.25;;;37.94;36.15
80654;BME280;70020;45.524;10.240;2023-08-01T05:40:36;71353.69;;;37.96;36.22
80654;BME280;70020;45.524;10.240;2023-08-01T05:43:02;71355.66;;;37.98;36.43
80654;BME280;70020;45.524;10.240;2023-08-01T05:45:29;71359.38;;;38.01;36.16
80654;BME280;70020;45.524;10.240;2023-08-01T05:47:55;71360.81;;;38.02;36.87
80654;BME280;70020;45.524;10.240;2023-08-01T05:50:21;71360.09;;;38.01;34.47
80654;BME280;70020;45.524;10.240;2023-08-01T05:52:48;71362.41;;;38.03;35.98
80654;BME280;70020;45.524;10.240;2023-08-01T05:55:14;71363.72;;;38.04;33.52
80654;BME280;70020;45.524;10.240;2023-08-01T05:57:39;71366.41;;;38.07;36.01
80654;BME280;70020;45.524;10.240;2023-08-01T06:00:06;71367.25;;;38.08;36.91
80654;BME280;70020;45.524;10.240;2023-08-01T06:02:34;71365.13;;;38.06;37.16
80654;BME280;70020;45.524;10.240;2023-08-01T06:05:00;71366.28;;;38.07;35.92
80654;BME280;70020;45.524;10.240;2023-08-01T06:07:25;71362.03;;;38.03;37.37
80654;BME280;70020;45.524;10.240;2023-08-01T06:09:51;71360.50;;;38.01;37.25
80654;BME280;70020;45.524;10.240;2023-08-01T06:12:17;71353.78;;;37.95;37.72
80654;BME280;70020;45.524;10.240;2023-08-01T06:14:43;71351.84;;;37.93;35.47
80654;BME280;70020;45.524;10.240;2023-08-01T06:17:09;71354.13;;;37.95;35.36
80654;BME280;70020;45.524;10.240;2023-08-01T06:19:35;71357.03;;;37.97;35.80
80654;BME280;70020;45.524;10.240;2023-08-01T06:22:00;71362.16;;;38.02;33.63
80654;BME280;70020;45.524;10.240;2023-08-01T06:24:26;71366.59;;;38.06;32.61
80654;BME280;70020;45.524;10.240;2023-08-01T06:26:52;71370.91;;;38.10;33.38
80654;BME280;70020;45.524;10.240;2023-08-01T06:29:18;71372.56;;;38.11;33.60
80654;BME280;70020;45.524;10.240;2023-08-01T06:31:44;71375.44;;;38.14;34.74
80654;BME280;70020;45.524;10.240;2023-08-01T06:34:10;71380.72;;;38.19;34.89
80654;BME280;70020;45.524;10.240;2023-08-01T06:36:35;71384.44;;;38.22;34.06
80654;BME280;70020;45.524;10.240;2023-08-01T06:39:01;71389.13;;;38.26;33.71
80654;BME280;70020;45.524;10.240;2023-08-01T06:41:27;71394.09;;;38.30;33.39
80654;BME280;70020;45.524;10.240;2023-08-01T06:43:53;71398.66;;;38.34;32.98
80654;BME280;70020;45.524;10.240;2023-08-01T06:46:19;71402.72;;;38.38;33.71
80654;BME280;70020;45.524;10.240;2023-08-01T06:48:44;71406.28;;;38.41;33.32
80654;BME280;70020;45.524;10.240;2023-08-01T06:51:10;71411.59;;;38.45;32.86
80654;BME280;70020;45.524;10.240;2023-08-01T06:53:36;71416.88;;;38.50;31.43
80654;BME280;70020;45.524;10.240;2023-08-01T06:56:02;71422.31;;;38.55;32.12
80654;BME280;70020;45.524;10.240;2023-08-01T06:58:28;71423.88;;;38.57;33.15
80654;BME280;70020;45.524;10.240;2023-08-01T07:00:54;71425.19;;;38.58;31.43
80654;BME280;70020;45.524;10.240;2023-08-01T07:03:20;71428.97;;;38.61;30.87
80654;BME280;70020;45.524;10.240;2023-08-01T07:05:46;71430.66;;;38.63;32.87
80654;BME280;70020;45.524;10.240;2023-08-01T07:08:11;71434.66;;;38.67;32.75
80654;BME280;70020;45.524;10.240;2023-08-01T07:10:37;71434.78;;;38.67;32.96
80654;BME280;70020;45.524;10.240;2023-08-01T07:13:03;71437.81;;;38.69;31.92
80654;BME280;70020;45.524;10.240;2023-08-01T07:15:32;71441.16;;;38.72;32.43
80654;BME280;70020;45.524;10.240;2023-08-01T07:17:59;71443.28;;;38.74;32.02
80654;BME280;70020;45.524;10.240;2023-08-01T07:20:25;71446.59;;;38.77;33.08
80654;BME280;70020;45.524;10.240;2023-08-01T07:22:50;71451.28;;;38.81;32.21
80654;BME280;70020;45.524;10.240;2023-08-01T07:25:16;71451.75;;;38.82;31.38
80654;BME280;70020;45.524;10.240;2023-08-01T07:27:42;71452.03;;;38.82;31.29
80654;BME280;70020;45.524;10.240;2023-08-01T07:30:10;71452.44;;;38.82;31.28
80654;BME280;70020;45.524;10.240;2023-08-01T07:32:36;71453.25;;;38.83;31.49
80654;BME280;70020;45.524;10.240;2023-08-01T07:35:05;71456.09;;;38.85;30.47
80654;BME280;70020;45.524;10.240;2023-08-01T07:37:33;71460.00;;;38.88;30.80
80654;BME280;70020;45.524;10.240;2023-08-01T07:39:58;71466.31;;;38.94;29.85
80654;BME280;70020;45.524;10.240;2023-08-01T07:42:24;71473.16;;;39.00;29.51
80654;BME280;70020;45.524;10.240;2023-08-01T07:44:50;71479.19;;;39.05;29.34
80654;BME280;70020;45.524;10.240;2023-08-01T07:47:15;71482.63;;;39.08;29.79
80654;BME280;70020;45.524;10.240;2023-08-01T07:49:45;71486.09;;;39.11;29.00
80654;BME280;70020;45.524;10.240;2023-08-01T07:52:10;71490.22;;;39.15;28.95
80654;BME280;70020;45.524;10.240;2023-08-01T07:54:36;71493.22;;;39.18;29.32
80654;BME280;70020;45.524;10.240;2023-08-01T07:57:02;71494.63;;;39.19;29.87
80654;BME280;70020;45.524;10.240;2023-08-01T07:59:28;71496.53;;;39.21;30.40
80654;BME280;70020;45.524;10.240;2023-08-01T08:01:55;71499.28;;;39.23;31.58
80654;BME280;70020;45.524;10.240;2023-08-01T08:04:21;71502.84;;;39.26;30.40
80654;BME280;70020;45.524;10.240;2023-08-01T08:06:48;71506.16;;;39.29;29.88
80654;BME280;70020;45.524;10.240;2023-08-01T08:09:13;71508.69;;;39.31;29.90
80654;BME280;70020;45.524;10.240;2023-08-01T08:11:40;71514.19;;;39.36;29.46
80654;BME280;70020;45.524;10.240;2023-08-01T08:14:06;71518.22;;;39.39;30.06
80654;BME280;70020;45.524;10.240;2023-08-01T08:16:33;71519.78;;;39.41;31.37
80654;BME280;70020;45.524;10.240;2023-08-01T08:19:00;71522.44;;;39.43;31.09
80654;BME280;70020;45.524;10.240;2023-08-01T08:21:25;71528.06;;;39.48;30.02
80654;BME280;70020;45.524;10.240;2023-08-01T08:23:51;71533.50;;;39.53;29.69
80654;BME280;70020;45.524;10.240;2023-08-01T08:26:17;71538.25;;;39.57;29.26
80654;BME280;70020;45.524;10.240;2023-08-01T08:28:43;71540.97;;;39.60;29.73
80654;BME280;70020;45.524;10.240;2023-08-01T08:31:09;71544.56;;;39.63;30.15
80654;BME280;70020;45.524;10.240;2023-08-01T08:33:35;71547.81;;;39.66;30.41
80654;BME280;70020;45.524;10.240;2023-08-01T08:36:00;71552.81;;;39.70;29.84
80654;BME280;70020;45.524;10.240;2023-08-01T08:38:26;71554.28;;;39.71;31.02
80654;BME280;70020;45.524;10.240;2023-08-01T08:41:13;71558.31;;;39.75;30.12
80654;BME280;70020;45.524;10.240;2023-08-01T08:43:47;71563.31;;;39.80;29.93
80654;BME280;70020;45.524;10.240;2023-08-01T08:46:19;71568.59;;;39.84;29.30
80654;BME280;70020;45.524;10.240;2023-08-01T08:48:47;71575.00;;;39.90;29.12
80654;BME280;70020;45.524;10.240;2023-08-01T08:51:12;71581.16;;;39.96;30.43
80654;BME280;70020;45.524;10.240;2023-08-01T08:53:42;71586.72;;;40.01;29.63
80654;BME280;70020;45.524;10.240;2023-08-01T08:56:10;71593.19;;;40.06;29.64
80654;BME280;70020;45.524;10.240;2023-08-01T08:58:37;71597.94;;;40.11;30.08
80654;BME280;70020;45.524;10.240;2023-08-01T09:01:06;71604.09;;;40.16;29.44
80654;BME280;70020;45.524;10.240;2023-08-01T09:03:33;71607.84;;;40.19;30.08
80654;BME280;70020;45.524;10.240;2023-08-01T09:06:04;71614.56;;;40.25;29.38
80654;BME280;70020;45.524;10.240;2023-08-01T09:08:35;71620.22;;;40.30;29.51
80654;BME280;70020;45.524;10.240;2023-08-01T09:11:05;71624.22;;;40.33;29.24
80654;BME280;70020;45.524;10.240;2023-08-01T09:13:31;71629.38;;;40.38;28.84
80654;BME280;70020;45.524;10.240;2023-08-01T09:15:57;71633.25;;;40.41;29.49
80654;BME280;70020;45.524;10.240;2023-08-01T09:18:23;71634.44;;;40.42;30.03
80654;BME280;70020;45.524;10.240;2023-08-01T09:20:49;71633.13;;;40.41;30.38
80654;BME280;70020;45.524;10.240;2023-08-01T09:23:16;71636.13;;;40.44;29.86
80654;BME280;70020;45.524;10.240;2023-08-01T09:25:42;71638.44;;;40.46;30.19
80654;BME280;70020;45.524;10.240;2023-08-01T09:28:19;71640.84;;;40.48;30.08
80654;BME280;70020;45.524;10.240;2023-08-01T09:30:55;71643.13;;;40.50;30.36
80654;BME280;70020;45.524;10.240;2023-08-01T09:33:21;71644.00;;;40.51;29.99
80654;BME280;70020;45.524;10.240;2023-08-01T09:35:51;71643.13;;;40.50;31.33
80654;BME280;70020;45.524;10.240;2023-08-01T09:38:17;71644.84;;;40.52;30.75
80654;BME280;70020;45.524;10.240;2023-08-01T09:40:44;71648.13;;;40.55;29.42
80654;BME280;70020;45.524;10.240;2023-08-01T09:43:11;71652.00;;;40.58;29.24
80654;BME280;70020;45.524;10.240;2023-08-01T09:45:37;71655.38;;;40.61;28.56
80654;BME280;70020;45.524;10.240;2023-08-01T09:48:03;71661.22;;;40.67;27.95
80654;BME280;70020;45.524;10.240;2023-08-01T09:50:28;71667.81;;;40.72;28.62
80654;BME280;70020;45.524;10.240;2023-08-01T09:52:54;71671.09;;;40.75;29.09
80654;BME280;70020;45.524;10.240;2023-08-01T09:55:32;71674.38;;;40.79;29.06
80654;BME280;70020;45.524;10.240;2023-08-01T09:57:59;71679.81;;;40.83;28.31
80654;BME280;70020;45.524;10.240;2023-08-01T10:00:26;71686.78;;;40.90;27.53
80654;BME280;70020;45.524;10.240;2023-08-01T10:02:52;71690.66;;;40.93;27.98
80654;BME280;70020;45.524;10.240;2023-08-01T10:05:19;71689.44;;;40.93;28.95
80654;BME280;70020;45.524;10.240;2023-08-01T10:07:45;71691.75;;;40.95;28.72
80654;BME280;70020;45.524;10.240;2023-08-01T10:10:13;71695.66;;;40.98;28.46
80654;BME280;70020;45.524;10.240;2023-08-01T10:12:43;71697.81;;;41.00;29.12
80654;BME280;70020;45.524;10.240;2023-08-01T10:15:11;71702.41;;;41.04;29.92
80654;BME280;70020;45.524;10.240;2023-08-01T10:17:37;71708.03;;;41.08;28.20
80654;BME280;70020;45.524;10.240;2023-08-01T10:20:04;71713.94;;;41.14;28.81
80654;BME280;70020;45.524;10.240;2023-08-01T10:22:30;71716.06;;;41.16;29.26
80654;BME280;70020;45.524;10.240;2023-08-01T10:24:57;71716.34;;;41.16;28.89
80654;BME280;70020;45.524;10.240;2023-08-01T10:27:23;71719.47;;;41.19;28.43
80654;BME280;70020;45.524;10.240;2023-08-01T10:30:00;71723.59;;;41.23;28.08
80654;BME280;70020;45.524;10.240;2023-08-01T10:32:37;71729.06;;;41.27;27.89
80654;BME280;70020;45.524;10.240;2023-08-01T10:35:04;71732.91;;;41.31;27.14
80654;BME280;70020;45.524;10.240;2023-08-01T10:37:45;71737.63;;;41.35;28.18
80654;BME280;70020;45.524;10.240;2023-08-01T10:40:13;71743.66;;;41.41;26.99
80654;BME280;70020;45.524;10.240;2023-08-01T10:42:44;71748.13;;;41.44;26.48
80654;BME280;70020;45.524;10.240;2023-08-01T10:45:21;71752.66;;;41.49;27.26
80654;BME280;70020;45.524;10.240;2023-08-01T10:47:49;71756.41;;;41.52;26.36
80654;BME280;70020;45.524;10.240;2023-08-01T10:50:16;71759.38;;;41.55;26.48
80654;BME280;70020;45.524;10.240;2023-08-01T10:52:43;71761.97;;;41.57;26.94
80654;BME280;70020;45.524;10.240;2023-08-01T10:55:10;71766.25;;;41.61;26.56
80654;BME280;70020;45.524;10.240;2023-08-01T10:57:49;71768.97;;;41.63;27.53
80654;BME280;70020;45.524;10.240;2023-08-01T11:00:18;71776.09;;;41.70;26.16
80654;BME280;70020;45.524;10.240;2023-08-01T11:02:49;71783.00;;;41.76;25.65
80654;BME280;70020;45.524;10.240;2023-08-01T11:05:15;71786.56;;;41.79;25.52
80654;BME280;70020;45.524;10.240;2023-08-01T11:07:42;71790.88;;;41.83;25.27
80654;BME280;70020;45.524;10.240;2023-08-01T11:10:18;71792.72;;;41.85;25.76
80654;BME280;70020;45.524;10.240;2023-08-01T11:12:44;71795.69;;;41.87;26.13
80654;BME280;70020;45.524;10.240;2023-08-01T11:15:12;71799.38;;;41.91;25.12
80654;BME280;70020;45.524;10.240;2023-08-01T11:17:40;71805.41;;;41.96;25.68
80654;BME280;70020;45.524;10.240;2023-08-01T11:20:10;71813.16;;;42.03;26.19
80654;BME280;70020;45.524;10.240;2023-08-01T11:22:37;71819.75;;;42.09;25.88
80654;BME280;70020;45.524;10.240;2023-08-01T11:25:04;71827.41;;;42.15;25.79
80654;BME280;70020;45.524;10.240;2023-08-01T11:27:30;71828.69;;;42.17;25.17
80654;BME280;70020;45.524;10.240;2023-08-01T11:29:56;71829.88;;;42.17;26.33
80654;BME280;70020;45.524;10.240;2023-08-01T11:32:33;71830.69;;;42.18;24.36
80654;BME280;70020;45.524;10.240;2023-08-01T11:34:59;71833.75;;;42.21;26.04
80654;BME280;70020;45.524;10.240;2023-08-01T11:37:26;71833.97;;;42.21;25.80
80654;BME280;70020;45.524;10.240;2023-08-01T11:39:51;71835.94;;;42.23;25.39
80654;BME280;70020;45.524;10.240;2023-08-01T11:42:18;71837.94;;;42.25;25.82
80654;BME280;70020;45.524;10.240;2023-08-01T11:44:44;71838.66;;;42.26;25.40
80654;BME280;70020;45.524;10.240;2023-08-01T11:47:15;71840.06;;;42.27;24.88
80654;BME280;70020;45.524;10.240;2023-08-01T11:49:48;71844.78;;;42.31;25.29
80654;BME280;70020;45.524;10.240;2023-08-01T11:52:34;71850.34;;;42.36;24.98
80654;BME280;70020;45.524;10.240;2023-08-01T11:55:00;71855.59;;;42.42;25.23
80654;BME280;70020;45.524;10.240;2023-08-01T11:57:27;71859.44;;;42.45;25.55
80654;BME280;70020;45.524;10.240;2023-08-01T11:59:54;71859.88;;;42.45;26.03
80654;BME280;70020;45.524;10.240;2023-08-01T12:02:25;71859.72;;;42.45;25.90
80654;BME280;70020;45.524;10.240;2023-08-01T12:04:51;71860.88;;;42.46;26.16
80654;BME280;70020;45.524;10.240;2023-08-01T12:07:17;71861.28;;;42.47;26.36
80654;BME280;70020;45.524;10.240;2023-08-01T12:10:05;71859.56;;;42.45;27.25
80654;BME280;70020;45.524;10.240;2023-08-01T12:12:30;71861.28;;;42.47;27.46
80654;BME280;70020;45.524;10.240;2023-08-01T12:14:55;71859.66;;;42.46;26.61
80654;BME280;70020;45.524;10.240;2023-08-01T12:17:25;71860.25;;;42.46;27.05
80654;BME280;70020;45.524;10.240;2023-08-01T12:19:51;71860.38;;;42.46;26.41
80654;BME280;70020;45.524;10.240;2023-08-01T12:22:17;71860.78;;;42.47;26.15
80654;BME280;70020;45.524;10.240;2023-08-01T12:24:43;71861.19;;;42.47;27.28
80654;BME280;70020;45.524;10.240;2023-08-01T12:27:10;71862.38;;;42.48;26.10
80654;BME280;70020;45.524;10.240;2023-08-01T12:29:36;71864.41;;;42.50;26.24
80654;BME280;70020;45.524;10.240;2023-08-01T12:32:04;71865.97;;;42.51;25.89
80654;BME280;70020;45.524;10.240;2023-08-01T12:34:32;71864.94;;;42.51;26.57
80654;BME280;70020;45.524;10.240;2023-08-01T12:36:57;71865.22;;;42.51;26.28
80654;BME280;70020;45.524;10.240;2023-08-01T12:39:23;71864.34;;;42.50;27.06
80654;BME280;70020;45.524;10.240;2023-08-01T12:41:51;71861.34;;;42.47;26.13
80654;BME280;70020;45.524;10.240;2023-08-01T12:44:17;71859.03;;;42.45;27.28
80654;BME280;70020;45.524;10.240;2023-08-01T12:46:43;71856.88;;;42.44;27.07
80654;BME280;70020;45.524;10.240;2023-08-01T12:49:08;71854.13;;;42.41;27.04